Time;durP1;ratioP1;P1;durP2;ratioP2;P2;SDS_P1;SDS_P2;PMS_P1;PMS_P2;Temp;Humidity;BMP_temperature;BMP_pressure;BME280_temperature;BME280_humidity;BME280_pressure;Samples;Min_cycle;Max_cycle;Signal;HPM_P1;HPM_P2
2022/11/14 00:00:47;;;;;;;81.85;22.30;;;4.10;99.90;;;;;;5052618;28;20035;-69
2022/11/14 00:03:13;;;;;;;125.57;26.48;;;4.10;99.90;;;;;;5052502;28;20410;-68
2022/11/14 00:05:41;;;;;;;101.78;20.08;;;4.00;99.90;;;;;;5052415;28;20033;-74
2022/11/14 00:08:17;;;;;;;85.57;22.42;;;3.90;99.90;;;;;;5054697;28;20024;-68
2022/11/14 00:10:45;;;;;;;89.43;18.75;;;3.90;99.90;;;;;;5056063;28;20032;-75
2022/11/14 00:13:10;;;;;;;110.35;25.13;;;3.90;99.90;;;;;;5056063;28;20021;-68
2022/11/14 00:15:36;;;;;;;73.03;22.48;;;3.80;99.90;;;;;;5055852;28;20429;-74
2022/11/14 00:18:02;;;;;;;60.42;19.40;;;3.80;99.90;;;;;;5055954;28;20052;-69
2022/11/14 00:20:27;;;;;;;76.57;18.38;;;3.80;99.90;;;;;;5055650;28;20021;-73
2022/11/14 00:22:53;;;;;;;53.15;17.45;;;3.70;99.90;;;;;;5055725;28;20549;-75
2022/11/14 00:25:18;;;;;;;67.28;19.05;;;3.60;99.90;;;;;;5054411;28;20478;-68
2022/11/14 00:27:44;;;;;;;72.32;20.33;;;3.60;99.90;;;;;;5055894;28;20364;-75
2022/11/14 00:30:10;;;;;;;57.83;19.13;;;3.70;99.90;;;;;;5055481;28;20367;-74
2022/11/14 00:32:35;;;;;;;81.65;20.13;;;3.60;99.90;;;;;;5055685;28;20048;-75
2022/11/14 00:35:01;;;;;;;93.57;20.65;;;3.60;99.90;;;;;;5054101;28;20025;-68
2022/11/14 00:37:27;;;;;;;57.88;18.77;;;3.60;99.90;;;;;;5055512;28;20053;-75
2022/11/14 00:39:52;;;;;;;72.82;19.38;;;3.60;99.90;;;;;;5055464;28;20363;-71
2022/11/14 00:42:18;;;;;;;69.85;18.45;;;3.50;99.90;;;;;;5054128;28;20059;-75
2022/11/14 00:44:43;;;;;;;78.13;19.75;;;3.50;99.90;;;;;;5055404;28;20029;-75
2022/11/14 00:47:09;;;;;;;51.47;18.42;;;3.50;99.90;;;;;;5054184;28;20021;-75
2022/11/14 00:49:34;;;;;;;54.83;17.15;;;3.40;99.90;;;;;;5053939;28;20501;-74
2022/11/14 00:52:00;;;;;;;50.85;18.20;;;3.40;99.90;;;;;;5055452;28;20029;-74
2022/11/14 00:54:26;;;;;;;67.80;16.95;;;3.40;99.90;;;;;;5055167;28;20017;-69
2022/11/14 00:56:51;;;;;;;62.35;19.38;;;3.40;99.90;;;;;;5055287;28;20413;-74
2022/11/14 00:59:17;;;;;;;51.58;17.85;;;3.30;99.90;;;;;;5055022;28;20035;-74
2022/11/14 01:01:42;;;;;;;52.25;16.63;;;3.40;99.90;;;;;;5055063;28;20037;-75
2022/11/14 01:04:08;;;;;;;49.00;16.20;;;3.40;99.90;;;;;;5054947;28;20037;-75
2022/11/14 01:06:34;;;;;;;55.95;16.80;;;3.40;99.90;;;;;;5055014;28;20025;-69
2022/11/14 01:08:59;;;;;;;63.63;18.55;;;3.40;99.90;;;;;;5055074;28;20021;-74
2022/11/14 01:11:25;;;;;;;65.55;18.15;;;3.40;99.90;;;;;;5054965;28;20025;-69
2022/11/14 01:13:50;;;;;;;61.72;18.20;;;3.30;99.90;;;;;;5054900;28;20088;-74
2022/11/14 01:16:16;;;;;;;47.03;17.45;;;3.30;99.90;;;;;;5054625;28;20025;-69
2022/11/14 01:18:41;;;;;;;70.35;19.02;;;3.40;99.90;;;;;;5053534;28;20487;-68
2022/11/14 01:21:09;;;;;;;87.05;18.38;;;3.40;99.90;;;;;;5054706;28;20032;-70
2022/11/14 01:23:35;;;;;;;73.28;16.95;;;3.40;99.90;;;;;;5054643;28;20509;-68
2022/11/14 01:26:07;;;;;;;53.67;17.05;;;3.30;99.90;;;;;;5054599;28;20074;-68
2022/11/14 01:28:33;;;;;;;72.30;17.45;;;3.40;99.90;;;;;;5054763;28;20051;-68
2022/11/14 01:31:16;;;;;;;88.15;18.52;;;3.40;99.90;;;;;;5053107;28;20115;-68
2022/11/14 01:33:42;;;;;;;74.70;19.52;;;3.40;99.90;;;;;;5054695;28;20043;-74
2022/11/14 01:36:09;;;;;;;65.18;16.20;;;3.30;99.90;;;;;;5054456;28;20029;-68
2022/11/14 01:38:36;;;;;;;66.63;15.07;;;3.30;99.90;;;;;;5053143;28;20090;-68
2022/11/14 01:41:02;;;;;;;77.03;19.48;;;3.30;99.90;;;;;;5054275;28;20400;-74
2022/11/14 01:43:36;;;;;;;62.10;16.02;;;3.30;99.90;;;;;;5054333;28;20052;-71
2022/11/14 01:46:02;;;;;;;95.68;18.67;;;3.30;99.90;;;;;;5054304;28;20025;-74
2022/11/14 01:48:30;;;;;;;73.05;19.17;;;3.30;99.90;;;;;;5052945;28;20021;-68
2022/11/14 01:51:03;;;;;;;65.45;18.52;;;3.30;99.90;;;;;;5054096;28;20025;-69
2022/11/14 01:53:30;;;;;;;59.00;16.80;;;3.30;99.90;;;;;;5054185;28;20029;-68
2022/11/14 01:56:00;;;;;;;74.82;18.13;;;3.20;99.90;;;;;;5054170;28;20476;-74
2022/11/14 01:58:28;;;;;;;71.30;18.17;;;3.30;99.90;;;;;;5053938;28;20024;-69
2022/11/14 02:00:55;;;;;;;103.07;19.63;;;3.20;99.90;;;;;;5053984;28;20063;-73
2022/11/14 02:03:20;;;;;;;81.15;19.05;;;3.20;99.90;;;;;;5053966;28;20033;-68
2022/11/14 02:05:47;;;;;;;69.90;16.90;;;3.20;99.90;;;;;;5053852;28;20090;-68
2022/11/14 02:08:14;;;;;;;76.78;19.45;;;3.20;99.90;;;;;;5053803;28;20083;-74
2022/11/14 02:10:40;;;;;;;104.07;20.33;;;3.20;99.90;;;;;;5053879;28;20071;-68
2022/11/14 02:13:05;;;;;;;69.00;18.35;;;3.20;99.90;;;;;;5053673;28;20045;-69
2022/11/14 02:15:32;;;;;;;60.25;16.13;;;3.20;99.90;;;;;;5053584;28;20036;-74
2022/11/14 02:17:58;;;;;;;74.47;15.38;;;3.20;99.90;;;;;;5053753;28;20017;-68
2022/11/14 02:20:27;;;;;;;72.80;17.42;;;3.10;99.90;;;;;;5053594;28;20032;-74
2022/11/14 02:22:53;;;;;;;57.65;14.55;;;3.10;99.90;;;;;;5053532;28;20029;-74
2022/11/14 02:25:19;;;;;;;45.63;12.55;;;3.10;99.90;;;;;;5053427;28;20017;-74
2022/11/14 02:27:45;;;;;;;35.05;13.02;;;3.00;99.90;;;;;;5053647;28;20075;-74
2022/11/14 02:30:14;;;;;;;46.28;15.13;;;3.00;99.90;;;;;;5053107;28;20025;-68
2022/11/14 02:32:40;;;;;;;43.40;15.55;;;3.00;99.90;;;;;;5053430;28;20060;-74
2022/11/14 02:35:06;;;;;;;44.90;14.15;;;3.00;99.90;;;;;;5053485;28;20025;-68
2022/11/14 02:37:32;;;;;;;49.90;15.48;;;3.10;99.90;;;;;;5052071;28;20498;-74
2022/11/14 02:39:57;;;;;;;47.17;16.70;;;3.10;99.90;;;;;;5053480;28;20071;-74
2022/11/14 02:42:23;;;;;;;53.83;15.52;;;3.10;99.90;;;;;;5053015;28;20056;-73
2022/11/14 02:44:49;;;;;;;39.03;14.55;;;3.10;99.90;;;;;;5053478;28;20025;-74
2022/11/14 02:47:14;;;;;;;57.67;14.18;;;3.10;99.90;;;;;;5053314;28;20018;-68
2022/11/14 02:49:40;;;;;;;49.75;14.75;;;3.10;99.90;;;;;;5053385;28;20025;-69
2022/11/14 02:52:06;;;;;;;33.75;13.38;;;3.00;99.90;;;;;;5053195;28;20075;-69
2022/11/14 02:54:31;;;;;;;43.85;15.25;;;3.10;99.90;;;;;;5053259;28;20033;-74
2022/11/14 02:56:57;;;;;;;45.15;16.05;;;3.10;99.90;;;;;;5053128;28;20028;-74
2022/11/14 02:59:22;;;;;;;45.17;14.48;;;3.10;99.90;;;;;;5053152;28;20075;-68
2022/11/14 03:01:48;;;;;;;43.63;14.50;;;3.10;99.90;;;;;;5053213;28;20873;-74
2022/11/14 03:04:13;;;;;;;41.03;15.13;;;3.00;99.90;;;;;;5053122;28;20041;-68
2022/11/14 03:06:39;;;;;;;52.35;16.95;;;3.10;99.90;;;;;;5053166;28;20461;-74
2022/11/14 03:09:04;;;;;;;49.85;15.40;;;3.10;99.90;;;;;;5053086;28;20091;-74
2022/11/14 03:11:30;;;;;;;52.85;16.77;;;3.10;99.90;;;;;;5052786;28;20104;-75
2022/11/14 03:13:56;;;;;;;50.70;16.77;;;3.10;99.90;;;;;;5052970;28;20059;-74
2022/11/14 03:16:22;;;;;;;37.65;15.45;;;3.20;99.90;;;;;;5052900;28;20013;-74
2022/11/14 03:18:47;;;;;;;52.83;16.42;;;3.20;99.90;;;;;;5053043;28;20390;-68
2022/11/14 03:21:15;;;;;;;44.13;17.08;;;3.20;99.90;;;;;;5053006;28;20048;-67
2022/11/14 03:23:41;;;;;;;52.25;17.67;;;3.20;99.90;;;;;;5052872;28;20037;-74
2022/11/14 03:26:08;;;;;;;44.92;16.15;;;3.20;99.90;;;;;;5052886;28;20035;-73
2022/11/14 03:28:34;;;;;;;47.17;15.88;;;3.20;99.90;;;;;;5052830;28;20025;-74
2022/11/14 03:31:00;;;;;;;45.72;15.73;;;3.10;99.90;;;;;;5052990;28;20376;-75
2022/11/14 03:33:26;;;;;;;68.68;20.35;;;3.20;99.90;;;;;;5052803;28;20037;-69
2022/11/14 03:35:52;;;;;;;66.60;20.05;;;3.20;99.90;;;;;;5051634;28;20025;-74
2022/11/14 03:38:21;;;;;;;62.50;19.02;;;3.20;99.90;;;;;;5052706;28;20025;-74
2022/11/14 03:40:48;;;;;;;68.57;20.90;;;3.20;99.90;;;;;;5052873;28;20025;-74
2022/11/14 03:43:15;;;;;;;68.43;21.73;;;3.20;99.90;;;;;;5055212;28;20502;-68
2022/11/14 03:45:40;;;;;;;57.58;18.92;;;3.20;99.90;;;;;;5056528;28;20028;-68
2022/11/14 03:48:06;;;;;;;64.05;20.00;;;3.30;99.90;;;;;;5056446;28;20029;-74
2022/11/14 03:50:32;;;;;;;57.40;20.90;;;3.20;99.90;;;;;;5055158;28;20501;-68
2022/11/14 03:52:57;;;;;;;57.53;19.13;;;3.20;99.90;;;;;;5056297;28;20021;-74
2022/11/14 03:55:23;;;;;;;66.05;18.05;;;3.20;99.90;;;;;;5056371;28;20382;-71
2022/11/14 03:57:49;;;;;;;61.03;17.85;;;3.20;99.90;;;;;;5056356;28;20529;-69
2022/11/14 04:00:15;;;;;;;64.15;21.10;;;3.20;99.90;;;;;;5056278;28;20072;-68
2022/11/14 04:02:40;;;;;;;53.72;19.42;;;3.20;99.90;;;;;;5056198;28;20394;-74
2022/11/14 04:05:07;;;;;;;52.42;18.73;;;3.20;99.90;;;;;;5056116;28;20086;-74
2022/11/14 04:07:32;;;;;;;68.20;20.10;;;3.20;99.90;;;;;;5056117;28;20378;-69
2022/11/14 04:09:58;;;;;;;76.63;21.92;;;3.30;99.90;;;;;;5056103;28;20021;-74
2022/11/14 04:12:23;;;;;;;51.40;15.63;;;3.30;99.90;;;;;;5055973;28;20029;-69
2022/11/14 04:14:49;;;;;;;63.63;19.63;;;3.20;99.90;;;;;;5055987;28;20433;-74
2022/11/14 04:17:14;;;;;;;63.17;17.85;;;3.20;99.90;;;;;;5054645;28;20017;-73
2022/11/14 04:19:40;;;;;;;53.35;17.15;;;3.20;99.90;;;;;;5056059;28;20032;-74
2022/11/14 04:22:05;;;;;;;61.85;18.20;;;3.20;99.90;;;;;;5055802;28;20029;-75
2022/11/14 04:24:31;;;;;;;65.53;16.83;;;3.30;99.90;;;;;;5055811;28;20037;-68
2022/11/14 04:26:57;;;;;;;64.28;19.65;;;3.30;99.90;;;;;;5055896;28;20082;-74
2022/11/14 04:29:22;;;;;;;59.88;18.67;;;3.20;99.90;;;;;;5055661;28;20025;-68
2022/11/14 04:31:48;;;;;;;56.58;16.10;;;3.30;99.90;;;;;;5055805;28;20025;-74
2022/11/14 04:34:13;;;;;;;62.03;18.17;;;3.30;99.90;;;;;;5055440;28;20480;-67
2022/11/14 04:36:39;;;;;;;58.75;16.42;;;3.30;99.90;;;;;;5055719;28;20100;-74
2022/11/14 04:39:05;;;;;;;80.50;18.00;;;3.20;99.90;;;;;;5054272;28;20029;-74
2022/11/14 04:41:30;;;;;;;68.47;19.20;;;3.20;99.90;;;;;;5055518;28;20539;-74
2022/11/14 04:43:56;;;;;;;51.70;19.10;;;3.20;99.90;;;;;;5053958;28;20037;-67
2022/11/14 04:46:22;;;;;;;61.65;17.30;;;3.20;99.90;;;;;;5055193;28;20029;-67
2022/11/14 04:48:47;;;;;;;57.70;17.52;;;3.30;99.90;;;;;;5055383;28;20040;-74
2022/11/14 04:51:13;;;;;;;59.35;18.17;;;3.30;99.90;;;;;;5055363;28;20025;-67
2022/11/14 04:53:38;;;;;;;69.13;19.63;;;3.30;99.90;;;;;;5054811;28;20429;-68
2022/11/14 04:56:04;;;;;;;66.70;18.00;;;3.30;99.90;;;;;;5054021;28;20022;-74
2022/11/14 04:58:30;;;;;;;75.38;19.02;;;3.30;99.90;;;;;;5055287;28;20025;-69
2022/11/14 05:00:58;;;;;;;46.10;16.17;;;3.30;99.90;;;;;;5053978;28;20013;-74
2022/11/14 05:03:24;;;;;;;75.60;16.27;;;3.30;99.90;;;;;;5054950;28;20400;-74
2022/11/14 05:05:50;;;;;;;67.80;18.70;;;3.30;99.90;;;;;;5055134;28;20382;-69
2022/11/14 05:08:16;;;;;;;89.07;20.17;;;3.20;99.90;;;;;;5055002;28;20021;-68
2022/11/14 05:10:43;;;;;;;67.30;16.80;;;3.30;99.90;;;;;;5055140;28;20051;-74
2022/11/14 05:13:09;;;;;;;62.78;16.45;;;3.20;99.90;;;;;;5054902;28;20386;-68
2022/11/14 05:15:34;;;;;;;70.25;18.85;;;3.20;99.90;;;;;;5054730;28;20040;-68
2022/11/14 05:18:00;;;;;;;81.25;19.48;;;3.10;99.90;;;;;;5054834;28;20017;-68
2022/11/14 05:20:25;;;;;;;57.78;16.98;;;3.20;99.90;;;;;;5054740;28;20040;-74
2022/11/14 05:22:55;;;;;;;75.15;17.60;;;3.20;99.90;;;;;;5054758;28;20086;-68
2022/11/14 05:25:21;;;;;;;70.63;17.42;;;3.10;99.90;;;;;;5054568;28;20039;-74
2022/11/14 05:27:47;;;;;;;72.60;17.60;;;3.10;99.90;;;;;;5053397;28;20021;-68
2022/11/14 05:30:13;;;;;;;56.88;16.45;;;3.10;99.90;;;;;;5054501;28;20588;-69
2022/11/14 05:32:39;;;;;;;73.75;18.75;;;3.10;99.90;;;;;;5053178;28;20506;-69
2022/11/14 05:35:05;;;;;;;61.70;18.13;;;3.20;99.90;;;;;;5054425;28;20024;-73
2022/11/14 05:37:32;;;;;;;60.55;16.50;;;3.20;99.90;;;;;;5054470;28;20013;-69
2022/11/14 05:39:58;;;;;;;56.40;15.68;;;3.10;99.90;;;;;;5054302;28;20051;-68
2022/11/14 05:42:23;;;;;;;54.80;15.65;;;3.10;99.90;;;;;;5053074;28;20434;-68
2022/11/14 05:44:49;;;;;;;51.25;15.00;;;3.10;99.90;;;;;;5054137;28;20025;-67
2022/11/14 05:47:15;;;;;;;68.00;17.05;;;3.00;99.90;;;;;;5054323;28;20028;-74
2022/11/14 05:49:40;;;;;;;50.35;14.85;;;3.00;99.90;;;;;;5054247;28;20029;-68
2022/11/14 05:52:06;;;;;;;79.28;18.75;;;3.00;99.90;;;;;;5054028;28;20394;-74
2022/11/14 05:54:31;;;;;;;46.97;16.33;;;3.00;99.90;;;;;;5053995;28;20386;-74
2022/11/14 05:56:57;;;;;;;82.07;17.95;;;3.10;99.90;;;;;;5054288;28;20017;-74
2022/11/14 05:59:22;;;;;;;54.42;16.42;;;3.10;99.90;;;;;;5053978;28;20032;-74
2022/11/14 06:01:48;;;;;;;67.38;17.73;;;3.10;99.90;;;;;;5054208;28;20021;-69
2022/11/14 06:04:14;;;;;;;74.47;20.15;;;3.10;99.90;;;;;;5052915;28;20502;-68
2022/11/14 06:06:40;;;;;;;58.65;18.63;;;3.10;99.90;;;;;;5054019;28;20502;-70
2022/11/14 06:09:05;;;;;;;58.35;15.40;;;3.10;99.90;;;;;;5053769;28;20025;-74
2022/11/14 06:11:31;;;;;;;56.10;17.08;;;3.10;99.90;;;;;;5052587;28;20031;-74
2022/11/14 06:13:57;;;;;;;79.75;16.13;;;3.10;99.90;;;;;;5053593;28;20021;-68
2022/11/14 06:16:23;;;;;;;62.22;16.08;;;3.20;99.90;;;;;;5053710;28;20041;-74
2022/11/14 06:18:51;;;;;;;44.80;13.20;;;3.10;99.90;;;;;;5053464;28;20017;-68
2022/11/14 06:21:19;;;;;;;53.22;15.55;;;3.00;99.90;;;;;;5052304;28;20042;-74
2022/11/14 06:23:45;;;;;;;62.45;14.80;;;3.00;99.90;;;;;;5052293;28;20033;-74
2022/11/14 06:26:21;;;;;;;51.30;13.32;;;3.00;99.90;;;;;;5052294;28;20045;-68
2022/11/14 06:28:51;;;;;;;75.25;16.48;;;3.00;99.90;;;;;;5053696;28;20071;-68
2022/11/14 06:31:18;;;;;;;50.55;13.50;;;3.00;99.90;;;;;;5054005;28;20022;-74
2022/11/14 06:33:44;;;;;;;38.17;13.13;;;3.00;99.90;;;;;;5052119;28;20025;-74
2022/11/14 06:36:11;;;;;;;32.30;12.77;;;3.00;99.90;;;;;;5052174;28;20032;-68
2022/11/14 06:38:38;;;;;;;36.58;11.65;;;3.00;99.90;;;;;;5053383;28;20478;-68
2022/11/14 06:41:04;;;;;;;37.75;11.50;;;2.90;99.90;;;;;;5052036;28;20021;-74
2022/11/14 06:43:32;;;;;;;35.33;11.77;;;3.00;99.90;;;;;;5051953;28;20414;-69
2022/11/14 06:45:58;;;;;;;46.28;13.13;;;3.00;99.90;;;;;;5053305;28;20136;-68
2022/11/14 06:48:23;;;;;;;36.15;12.65;;;2.90;99.90;;;;;;5053258;28;20053;-69
2022/11/14 06:50:56;;;;;;;33.97;11.93;;;3.00;99.90;;;;;;5053257;28;20025;-74
2022/11/14 06:53:22;;;;;;;39.60;13.30;;;3.00;99.90;;;;;;5053265;28;20047;-68
2022/11/14 06:55:58;;;;;;;40.55;13.27;;;3.00;99.90;;;;;;5053207;28;20021;-73
2022/11/14 06:58:28;;;;;;;47.22;14.60;;;3.10;99.90;;;;;;5052041;28;20382;-68
2022/11/14 07:00:53;;;;;;;38.10;13.07;;;3.10;99.90;;;;;;5051915;28;20438;-68
2022/11/14 07:03:20;;;;;;;32.85;13.88;;;3.10;99.90;;;;;;5053050;28;20072;-74
2022/11/14 07:05:46;;;;;;;38.05;14.00;;;3.10;99.90;;;;;;5053156;28;20033;-68
2022/11/14 07:08:12;;;;;;;38.83;12.82;;;3.10;99.90;;;;;;5051805;28;20447;-68
2022/11/14 07:10:37;;;;;;;35.40;11.95;;;3.10;99.90;;;;;;5052929;28;20055;-74
2022/11/14 07:13:03;;;;;;;44.65;12.43;;;3.10;99.90;;;;;;5043540;28;20368;-68
2022/11/14 07:15:28;;;;;;;48.97;13.55;;;3.10;99.90;;;;;;5046898;28;20033;-74
2022/11/14 07:17:54;;;;;;;36.85;11.32;;;3.10;99.90;;;;;;5070010;28;20519;-68
2022/11/14 07:20:20;;;;;;;46.42;13.95;;;3.20;99.90;;;;;;5055286;28;20037;-74
2022/11/14 07:22:46;;;;;;;37.70;12.25;;;3.20;99.90;;;;;;5069661;28;20021;-68
2022/11/14 07:25:12;;;;;;;38.28;14.55;;;3.30;99.90;;;;;;5075766;28;20048;-74
2022/11/14 07:27:38;;;;;;;35.58;12.50;;;3.30;99.90;;;;;;5075957;28;20016;-74
2022/11/14 07:30:04;;;;;;;35.03;12.27;;;3.40;99.90;;;;;;5063658;28;20032;-74
2022/11/14 07:32:30;;;;;;;29.40;12.48;;;3.40;99.90;;;;;;5075652;28;20024;-74
2022/11/14 07:34:55;;;;;;;56.13;13.88;;;3.30;99.90;;;;;;5075064;28;20031;-68
2022/11/14 07:37:21;;;;;;;26.42;10.93;;;3.40;99.90;;;;;;5075567;28;20433;-74
2022/11/14 07:39:47;;;;;;;32.60;13.70;;;3.40;99.90;;;;;;5075498;28;20119;-68
2022/11/14 07:42:12;;;;;;;29.48;12.68;;;3.50;99.90;;;;;;5075498;28;20060;-75
2022/11/14 07:44:38;;;;;;;24.73;11.23;;;3.50;99.90;;;;;;5069940;28;20057;-74
2022/11/14 07:47:03;;;;;;;30.98;12.18;;;3.60;99.90;;;;;;5059636;28;20017;-74
2022/11/14 07:49:29;;;;;;;38.08;16.65;;;3.60;99.90;;;;;;5066570;28;20028;-67
2022/11/14 07:51:54;;;;;;;26.42;11.40;;;3.70;99.90;;;;;;5075312;28;20029;-74
2022/11/14 07:54:20;;;;;;;35.17;15.73;;;3.80;99.90;;;;;;5073775;28;20103;-68
2022/11/14 07:56:45;;;;;;;28.70;13.10;;;3.80;99.90;;;;;;5075214;28;20037;-69
2022/11/14 07:59:11;;;;;;;33.42;11.68;;;3.90;99.90;;;;;;5075198;28;20017;-68
2022/11/14 08:01:37;;;;;;;41.67;12.20;;;3.80;99.90;;;;;;5074624;28;20100;-68
2022/11/14 08:04:05;;;;;;;38.30;12.75;;;3.80;99.90;;;;;;5074305;28;20033;-74
2022/11/14 08:06:31;;;;;;;36.70;12.63;;;3.80;99.90;;;;;;5073478;28;20029;-69
2022/11/14 08:08:56;;;;;;;44.72;12.27;;;3.70;99.90;;;;;;5073900;28;20016;-74
2022/11/14 08:14:06;;;;;;;33.83;11.68;;;3.70;99.90;;;;;;5061947;28;20519;-74
2022/11/14 08:16:32;;;;;;;30.85;11.60;;;3.80;99.90;;;;;;5066001;28;20323;-68
2022/11/14 08:18:57;;;;;;;26.23;9.82;;;3.80;99.90;;;;;;5067177;28;20032;-74
2022/11/14 08:21:23;;;;;;;24.05;10.77;;;3.90;99.90;;;;;;5063168;28;20033;-75
2022/11/14 08:23:48;;;;;;;24.15;11.32;;;4.00;99.90;;;;;;5074928;28;20089;-68
2022/11/14 08:26:14;;;;;;;23.67;9.70;;;4.00;99.90;;;;;;5074204;28;20107;-68
2022/11/14 08:28:39;;;;;;;28.35;12.90;;;4.10;99.90;;;;;;5068922;28;20485;-74
2022/11/14 08:31:05;;;;;;;20.83;10.10;;;4.10;99.90;;;;;;5066857;28;20524;-70
2022/11/14 08:33:30;;;;;;;22.70;10.75;;;4.10;99.90;;;;;;5048126;28;20074;-68
2022/11/14 08:36:03;;;;;;;28.02;10.38;;;4.20;99.90;;;;;;5046029;28;20033;-75
2022/11/14 08:38:33;;;;;;;23.17;11.55;;;4.10;99.90;;;;;;5046132;28;20108;-67
2022/11/14 08:41:00;;;;;;;22.95;10.23;;;4.20;99.90;;;;;;5045477;28;20049;-68
2022/11/14 08:43:26;;;;;;;23.63;11.82;;;4.30;99.90;;;;;;5045985;28;20052;-74
2022/11/14 08:45:52;;;;;;;27.92;13.45;;;4.30;99.90;;;;;;5047860;28;20033;-75
2022/11/14 08:48:17;;;;;;;28.60;11.00;;;4.30;99.90;;;;;;5045793;28;20032;-68
2022/11/14 08:50:43;;;;;;;26.08;12.10;;;4.30;99.90;;;;;;5042326;28;20429;-74
2022/11/14 08:53:08;;;;;;;23.13;11.15;;;4.40;99.90;;;;;;5061045;28;20074;-74
2022/11/14 08:55:34;;;;;;;26.10;11.38;;;4.40;99.90;;;;;;5074379;28;20031;-68
2022/11/14 08:57:59;;;;;;;32.90;12.60;;;4.50;99.90;;;;;;5075135;28;20020;-74
2022/11/14 09:00:25;;;;;;;24.05;11.05;;;4.50;99.90;;;;;;5075102;28;20078;-68
2022/11/14 09:02:51;;;;;;;21.27;9.90;;;4.50;99.90;;;;;;5074697;28;20072;-69
2022/11/14 09:05:16;;;;;;;22.08;10.32;;;4.50;99.90;;;;;;5075135;28;20024;-69
2022/11/14 09:07:42;;;;;;;23.55;10.85;;;4.60;99.90;;;;;;5075004;28;20441;-73
2022/11/14 09:10:08;;;;;;;19.75;9.63;;;4.70;99.90;;;;;;5075075;28;20033;-73
2022/11/14 09:12:34;;;;;;;21.73;10.68;;;4.70;99.90;;;;;;5074851;28;20050;-68
2022/11/14 09:15:00;;;;;;;23.65;11.55;;;4.80;99.90;;;;;;5056540;28;20017;-74
2022/11/14 09:17:25;;;;;;;25.42;11.90;;;4.80;99.90;;;;;;5054766;28;20486;-68
2022/11/14 09:19:51;;;;;;;29.20;12.23;;;4.80;99.90;;;;;;5054877;28;20029;-73
2022/11/14 09:22:17;;;;;;;22.10;10.82;;;4.80;99.90;;;;;;5054706;28;20102;-74
2022/11/14 09:24:45;;;;;;;24.05;12.20;;;4.80;99.90;;;;;;5053441;28;20029;-67
2022/11/14 09:27:11;;;;;;;26.48;11.85;;;4.90;99.90;;;;;;5054616;28;20048;-68
2022/11/14 09:29:37;;;;;;;23.05;11.35;;;4.80;99.90;;;;;;5054830;28;20102;-74
2022/11/14 09:32:02;;;;;;;22.40;10.98;;;4.90;99.90;;;;;;5053323;28;20021;-69
2022/11/14 09:34:28;;;;;;;18.67;9.57;;;5.00;99.90;;;;;;5054569;28;20025;-74
2022/11/14 09:36:53;;;;;;;23.73;11.50;;;5.10;99.90;;;;;;5054411;28;20351;-68
2022/11/14 09:39:19;;;;;;;24.73;12.98;;;5.10;99.90;;;;;;5054408;28;20381;-74
2022/11/14 09:42:10;;;;;;;21.52;11.57;;;5.20;99.90;;;;;;5054351;28;20049;-74
2022/11/14 09:44:51;;;;;;;19.20;11.43;;;5.30;99.90;;;;;;5054295;28;20037;-73
2022/11/14 09:47:24;;;;;;;25.73;13.60;;;5.30;99.90;;;;;;5053050;28;20029;-68
2022/11/14 09:49:55;;;;;;;21.88;11.70;;;5.40;99.90;;;;;;5054359;28;20029;-74
2022/11/14 09:52:33;;;;;;;25.73;11.73;;;5.30;99.90;;;;;;5054163;28;20028;-68
2022/11/14 09:55:22;;;;;;;26.55;12.05;;;5.30;99.90;;;;;;5052808;28;20056;-68
2022/11/14 09:57:48;;;;;;;24.85;12.32;;;5.40;99.90;;;;;;5054291;28;20028;-68
2022/11/14 10:00:15;;;;;;;25.17;13.77;;;5.40;99.90;;;;;;5054111;28;20025;-68
2022/11/14 10:03:09;;;;;;;21.08;11.40;;;5.40;99.90;;;;;;5052783;28;20071;-74
2022/11/14 10:05:58;;;;;;;24.95;12.15;;;5.40;99.90;;;;;;5052800;28;20037;-74
2022/11/14 10:08:26;;;;;;;19.65;10.82;;;5.50;99.90;;;;;;5053950;28;20048;-74
2022/11/14 10:10:56;;;;;;;28.58;13.77;;;5.50;99.90;;;;;;5052720;28;20025;-68
2022/11/14 10:13:30;;;;;;;26.08;12.55;;;5.60;99.90;;;;;;5053711;28;20466;-68
2022/11/14 10:16:07;;;;;;;25.52;12.57;;;5.70;99.90;;;;;;5053621;28;20027;-68
2022/11/14 10:18:37;;;;;;;23.77;11.15;;;5.60;99.90;;;;;;5053800;28;20036;-73
2022/11/14 10:21:34;;;;;;;30.73;14.23;;;5.60;99.90;;;;;;5052765;28;20383;-74
2022/11/14 10:24:23;;;;;;;28.20;13.95;;;5.70;99.90;;;;;;5053418;28;20045;-74
2022/11/14 10:27:29;;;;;;;25.63;12.75;;;5.70;99.90;;;;;;5053814;28;20056;-74
2022/11/14 10:30:13;;;;;;;23.30;13.00;;;5.70;99.90;;;;;;5052479;28;20033;-74
2022/11/14 10:32:41;;;;;;;26.58;14.70;;;5.70;99.90;;;;;;5053591;28;20062;-74
2022/11/14 10:35:20;;;;;;;28.80;14.77;;;5.80;99.90;;;;;;5053481;28;20481;-73
2022/11/14 10:37:58;;;;;;;26.25;14.57;;;5.80;99.90;;;;;;5053375;28;20021;-74
2022/11/14 10:40:38;;;;;;;26.13;13.68;;;5.90;99.90;;;;;;5053538;28;20436;-74
2022/11/14 10:43:15;;;;;;;26.02;13.95;;;6.00;99.90;;;;;;5053260;28;20049;-68
2022/11/14 10:46:00;;;;;;;26.95;14.32;;;6.20;99.90;;;;;;5053214;28;20021;-74
2022/11/14 10:48:32;;;;;;;29.33;14.40;;;6.20;99.90;;;;;;5053404;28;20017;-74
2022/11/14 10:51:13;;;;;;;25.20;13.30;;;6.30;99.90;;;;;;5052868;28;20055;-68
2022/11/14 10:53:50;;;;;;;25.23;12.90;;;6.20;99.90;;;;;;5051982;28;20064;-74
2022/11/14 10:56:16;;;;;;;24.75;13.68;;;6.20;99.90;;;;;;5053439;28;20032;-74
2022/11/14 10:58:43;;;;;;;30.58;12.43;;;6.20;99.90;;;;;;5053186;28;20037;-74
2022/11/14 11:01:30;;;;;;;28.92;14.65;;;6.20;99.90;;;;;;5053216;28;20025;-68
2022/11/14 11:03:56;;;;;;;29.23;14.68;;;6.20;99.90;;;;;;5051716;28;20037;-74
2022/11/14 11:06:26;;;;;;;21.80;11.52;;;6.20;99.90;;;;;;5053330;28;20153;-73
2022/11/14 11:11:50;;;;;;;30.17;14.77;;;6.50;99.90;;;;;;5053237;28;20036;-68
2022/11/14 11:14:18;;;;;;;27.52;13.25;;;6.60;99.90;;;;;;5052955;28;20196;-69
2022/11/14 11:16:45;;;;;;;26.00;13.10;;;6.70;99.90;;;;;;5053027;28;20022;-74
2022/11/14 11:19:23;;;;;;;26.48;14.25;;;6.70;99.90;;;;;;5052958;28;20040;-70
2022/11/14 11:21:51;;;;;;;25.38;13.57;;;6.70;99.90;;;;;;5053079;28;20055;-68
2022/11/14 11:24:31;;;;;;;25.27;13.20;;;6.70;99.90;;;;;;5051380;28;20048;-69
2022/11/14 11:27:19;;;;;;;23.90;13.18;;;6.60;99.90;;;;;;5052929;28;20066;-74
2022/11/14 11:30:08;;;;;;;21.95;12.48;;;6.50;99.90;;;;;;5053035;28;20036;-68
2022/11/14 11:32:33;;;;;;;19.10;11.48;;;6.50;99.90;;;;;;5052924;28;20029;-74
2022/11/14 11:35:02;;;;;;;22.23;12.50;;;6.40;99.90;;;;;;5052867;28;20479;-69
2022/11/14 11:37:44;;;;;;;21.88;11.32;;;6.50;99.90;;;;;;5052878;28;20421;-68
2022/11/14 11:40:22;;;;;;;18.35;11.15;;;6.40;99.90;;;;;;5051586;28;20025;-74
2022/11/14 11:42:59;;;;;;;18.40;11.88;;;6.30;99.90;;;;;;5051622;28;20053;-74
2022/11/14 11:45:26;;;;;;;18.77;10.98;;;6.30;99.90;;;;;;5052793;28;20040;-74
2022/11/14 11:48:20;;;;;;;21.08;10.90;;;6.20;99.90;;;;;;5051513;28;20051;-69
2022/11/14 11:50:47;;;;;;;18.23;10.43;;;6.30;99.90;;;;;;5052825;28;20040;-70
2022/11/14 11:53:33;;;;;;;22.00;12.85;;;6.30;99.90;;;;;;5052629;28;20497;-74
2022/11/14 11:56:03;;;;;;;20.25;11.23;;;6.30;99.90;;;;;;5052777;28;20359;-69
2022/11/14 11:58:36;;;;;;;18.45;10.77;;;6.30;99.90;;;;;;5052684;28;20116;-74
2022/11/14 12:01:02;;;;;;;19.33;11.45;;;6.20;99.90;;;;;;5052810;28;20052;-68
2022/11/14 12:03:28;;;;;;;21.15;10.98;;;6.20;99.90;;;;;;5055126;28;20068;-69
2022/11/14 12:06:24;;;;;;;24.33;11.73;;;6.20;99.90;;;;;;5056298;28;20052;-74
2022/11/14 12:09:03;;;;;;;21.35;12.27;;;6.20;99.90;;;;;;5056217;28;20036;-74
2022/11/14 12:11:33;;;;;;;24.95;12.85;;;6.20;99.90;;;;;;5056297;28;20052;-69
2022/11/14 12:14:26;;;;;;;23.35;13.15;;;6.20;99.90;;;;;;5054697;28;20441;-69
2022/11/14 12:17:00;;;;;;;30.77;15.10;;;6.20;99.90;;;;;;5056154;28;20032;-68
2022/11/14 12:19:34;;;;;;;32.50;16.50;;;6.30;99.90;;;;;;5055832;28;20021;-68
2022/11/14 12:22:21;;;;;;;30.15;16.15;;;6.30;99.90;;;;;;5056002;28;20064;-74
2022/11/14 12:25:00;;;;;;;26.80;15.32;;;6.30;99.90;;;;;;5055858;28;20116;-74
2022/11/14 12:27:49;;;;;;;26.08;15.55;;;6.30;99.90;;;;;;5055853;28;20374;-74
2022/11/14 12:30:22;;;;;;;26.33;14.30;;;6.20;99.90;;;;;;5055653;28;20025;-68
2022/11/14 12:32:58;;;;;;;28.83;13.90;;;6.10;99.90;;;;;;5055930;28;20045;-68
2022/11/14 12:35:29;;;;;;;27.23;14.95;;;6.10;99.90;;;;;;5055252;28;20020;-74
2022/11/14 12:37:57;;;;;;;26.55;14.00;;;6.10;99.90;;;;;;5055822;28;20028;-68
2022/11/14 12:40:25;;;;;;;32.10;16.27;;;6.10;99.90;;;;;;5055558;28;20032;-68
2022/11/14 12:42:51;;;;;;;28.27;15.23;;;6.00;99.90;;;;;;5055404;28;20045;-68
2022/11/14 12:45:35;;;;;;;30.40;15.65;;;5.90;99.90;;;;;;5055335;28;20417;-74
2022/11/14 12:48:19;;;;;;;31.73;17.35;;;5.90;99.90;;;;;;5055502;28;20108;-74